SVVA/VLN METAR and TAF weather

Enter ICAO airport designator
Station Type Date Time Source
SVVA METAR 2019/02/17 15:03 UTC NOAA

SVVA 171503Z ///// 9999 FEW020 29/20 Q1018


Station Type Date Time Source
SVVA Decoded METAR 2019/02/17 15:03 UTC NOAA

Valencia, Venezuela (SVVA) 10-10N 067-56W 431M
Feb 17, 2019 - 10:03 AM EST / 2019.02.17 1503 UTC
Visibility: greater than 7 mile(s):0
Sky conditions: mostly clear
Temperature: 84 F (29 C)
Dew Point: 68 F (20 C)
Relative Humidity: 58%
Pressure (altimeter): 30.06 in. Hg (1018 hPa)
ob: SVVA 171503Z ///// 9999 FEW020 29/20 Q1018
cycle: 15

Station Type Date Time Source
SVVA TAF 2019/02/04 18:42 UTC NOAA

TAF TAF SVVA 041600Z 0418/0518 06005KT 9999 FEW020 SCT050 TX33/0418Z TN22/0507Z
TEMPO 0422/0502 11002KT 9999 FEW020 SCT040
TEMPO 0506/0510 30005KT 9999 FEW020 FEW050


Example: see airport list